< < Back
Terminal Aerodrome Forecast


Current Version              Previous Versions:   1  2  3  4  5  6  7  8  9  

Terminal Aerodrome Forecast

244
FTUS42 KCAE 262330
TAFCAE
TAF
KCAE 262330Z 2700/2724 VRB03KT P6SM SCT150
     FM270900 VRB02KT 3SM BR BKN012
     FM271500 27005KT P6SM BKN040=



Latest METAR

037
SAUS80 KWBC 270800
MTRCAE
METAR KCAE 270756Z 00000KT 8SM CLR 23/21 A2997 RMK AO2 SLP146
T02280211


USA.gov is the U.S. government's official web portal to all federal, state and local government web resources and services.